sensor_id;sensor_type;location;lat;lon;timestamp;temperature;humidity
74376;HTU21D;62812;55.188;61.302;2024-03-02T00:01:15;-2.18;68.69
74376;HTU21D;62812;55.188;61.302;2024-03-02T00:03:43;-2.18;67.59
74376;HTU21D;62812;55.188;61.302;2024-03-02T00:06:10;-2.21;68.64
74376;HTU21D;62812;55.188;61.302;2024-03-02T00:08:37;-2.23;68.81
74376;HTU21D;62812;55.188;61.302;2024-03-02T00:11:04;-2.27;68.80
74376;HTU21D;62812;55.188;61.302;2024-03-02T00:13:31;-2.30;68.81
74376;HTU21D;62812;55.188;61.302;2024-03-02T00:15:58;-2.31;68.68
74376;HTU21D;62812;55.188;61.302;2024-03-02T00:18:27;-2.31;69.18
74376;HTU21D;62812;55.188;61.302;2024-03-02T00:20:55;-2.32;69.27
74376;HTU21D;62812;55.188;61.302;2024-03-02T00:23:23;-2.36;69.07
74376;HTU21D;62812;55.188;61.302;2024-03-02T00:25:51;-2.41;69.36
74376;HTU21D;62812;55.188;61.302;2024-03-02T00:28:20;-2.45;69.56
74376;HTU21D;62812;55.188;61.302;2024-03-02T00:30:57;-2.43;69.76
74376;HTU21D;62812;55.188;61.302;2024-03-02T00:33:30;-2.43;69.88
74376;HTU21D;62812;55.188;61.302;2024-03-02T00:36:00;-2.43;69.78
74376;HTU21D;62812;55.188;61.302;2024-03-02T00:38:27;-2.44;69.94
74376;HTU21D;62812;55.188;61.302;2024-03-02T00:40:54;-2.49;70.40
74376;HTU21D;62812;55.188;61.302;2024-03-02T00:43:45;-2.52;70.65
74376;HTU21D;62812;55.188;61.302;2024-03-02T00:46:15;-2.49;70.33
74376;HTU21D;62812;55.188;61.302;2024-03-02T00:48:48;-2.49;70.35
74376;HTU21D;62812;55.188;61.302;2024-03-02T00:51:18;-2.51;70.40
74376;HTU21D;62812;55.188;61.302;2024-03-02T00:53:45;-2.53;70.42
74376;HTU21D;62812;55.188;61.302;2024-03-02T00:56:11;-2.53;70.61
74376;HTU21D;62812;55.188;61.302;2024-03-02T00:58:38;-2.56;70.74
74376;HTU21D;62812;55.188;61.302;2024-03-02T01:01:05;-2.63;71.06
74376;HTU21D;62812;55.188;61.302;2024-03-02T01:03:31;-2.67;71.45
74376;HTU21D;62812;55.188;61.302;2024-03-02T01:05:59;-2.67;71.59
74376;HTU21D;62812;55.188;61.302;2024-03-02T01:08:26;-2.75;72.09
74376;HTU21D;62812;55.188;61.302;2024-03-02T01:10:53;-2.79;72.24
74376;HTU21D;62812;55.188;61.302;2024-03-02T01:13:21;-2.83;72.06
74376;HTU21D;62812;55.188;61.302;2024-03-02T01:15:48;-2.83;72.48
74376;HTU21D;62812;55.188;61.302;2024-03-02T01:18:14;-2.84;72.72
74376;HTU21D;62812;55.188;61.302;2024-03-02T01:20:41;-2.79;72.04
74376;HTU21D;62812;55.188;61.302;2024-03-02T01:23:07;-2.81;72.51
74376;HTU21D;62812;55.188;61.302;2024-03-02T01:25:35;-2.74;72.02
74376;HTU21D;62812;55.188;61.302;2024-03-02T01:28:02;-2.68;71.90
74376;HTU21D;62812;55.188;61.302;2024-03-02T01:30:28;-2.69;71.86
74376;HTU21D;62812;55.188;61.302;2024-03-02T01:32:55;-2.66;71.66
74376;HTU21D;62812;55.188;61.302;2024-03-02T01:35:21;-2.65;71.62
74376;HTU21D;62812;55.188;61.302;2024-03-02T01:37:47;-2.62;71.59
74376;HTU21D;62812;55.188;61.302;2024-03-02T01:40:17;-2.68;71.21
74376;HTU21D;62812;55.188;61.302;2024-03-02T01:42:45;-2.62;70.56
74376;HTU21D;62812;55.188;61.302;2024-03-02T01:45:11;-2.59;71.01
74376;HTU21D;62812;55.188;61.302;2024-03-02T01:47:39;-2.62;71.64
74376;HTU21D;62812;55.188;61.302;2024-03-02T01:50:09;-2.63;71.60
74376;HTU21D;62812;55.188;61.302;2024-03-02T01:52:37;-2.56;71.36
74376;HTU21D;62812;55.188;61.302;2024-03-02T01:55:04;-2.59;71.40
74376;HTU21D;62812;55.188;61.302;2024-03-02T01:57:32;-2.59;71.26
74376;HTU21D;62812;55.188;61.302;2024-03-02T02:00:00;-2.57;71.35
74376;HTU21D;62812;55.188;61.302;2024-03-02T02:02:27;-2.52;71.10
74376;HTU21D;62812;55.188;61.302;2024-03-02T02:04:54;-2.48;70.63
74376;HTU21D;62812;55.188;61.302;2024-03-02T02:07:20;-2.44;70.25
74376;HTU21D;62812;55.188;61.302;2024-03-02T02:09:47;-2.44;70.37
74376;HTU21D;62812;55.188;61.302;2024-03-02T02:12:13;-2.46;70.33
74376;HTU21D;62812;55.188;61.302;2024-03-02T02:14:47;-2.47;70.28
74376;HTU21D;62812;55.188;61.302;2024-03-02T02:17:16;-2.47;70.00
74376;HTU21D;62812;55.188;61.302;2024-03-02T02:19:43;-2.48;69.86
74376;HTU21D;62812;55.188;61.302;2024-03-02T02:22:11;-2.44;69.81
74376;HTU21D;62812;55.188;61.302;2024-03-02T02:24:40;-2.48;69.16
74376;HTU21D;62812;55.188;61.302;2024-03-02T02:27:07;-2.53;69.48
74376;HTU21D;62812;55.188;61.302;2024-03-02T02:29:33;-2.58;70.10
74376;HTU21D;62812;55.188;61.302;2024-03-02T02:32:00;-2.58;69.84
74376;HTU21D;62812;55.188;61.302;2024-03-02T02:34:27;-2.58;69.74
74376;HTU21D;62812;55.188;61.302;2024-03-02T02:36:53;-2.54;70.25
74376;HTU21D;62812;55.188;61.302;2024-03-02T02:39:22;-2.49;70.09
74376;HTU21D;62812;55.188;61.302;2024-03-02T02:41:48;-2.54;69.84
74376;HTU21D;62812;55.188;61.302;2024-03-02T02:44:15;-2.56;70.16
74376;HTU21D;62812;55.188;61.302;2024-03-02T02:46:41;-2.54;70.21
74376;HTU21D;62812;55.188;61.302;2024-03-02T02:49:08;-2.56;69.97
74376;HTU21D;62812;55.188;61.302;2024-03-02T02:51:35;-2.58;70.01
74376;HTU21D;62812;55.188;61.302;2024-03-02T02:54:01;-2.65;70.44
74376;HTU21D;62812;55.188;61.302;2024-03-02T02:56:29;-2.67;70.43
74376;HTU21D;62812;55.188;61.302;2024-03-02T02:58:56;-2.72;70.44
74376;HTU21D;62812;55.188;61.302;2024-03-02T03:01:25;-2.76;69.37
74376;HTU21D;62812;55.188;61.302;2024-03-02T03:03:51;-2.77;70.14
74376;HTU21D;62812;55.188;61.302;2024-03-02T03:06:18;-2.82;70.00
74376;HTU21D;62812;55.188;61.302;2024-03-02T03:08:44;-2.86;69.93
74376;HTU21D;62812;55.188;61.302;2024-03-02T03:11:11;-2.78;69.88
74376;HTU21D;62812;55.188;61.302;2024-03-02T03:13:41;-2.79;69.04
74376;HTU21D;62812;55.188;61.302;2024-03-02T03:16:07;-2.77;68.67
74376;HTU21D;62812;55.188;61.302;2024-03-02T03:18:34;-2.75;69.15
74376;HTU21D;62812;55.188;61.302;2024-03-02T03:21:00;-2.72;69.70
74376;HTU21D;62812;55.188;61.302;2024-03-02T03:23:27;-2.74;69.45
74376;HTU21D;62812;55.188;61.302;2024-03-02T03:25:53;-2.71;69.09
74376;HTU21D;62812;55.188;61.302;2024-03-02T03:28:19;-2.64;68.87
74376;HTU21D;62812;55.188;61.302;2024-03-02T03:30:47;-2.60;68.47
74376;HTU21D;62812;55.188;61.302;2024-03-02T03:33:14;-2.63;68.55
74376;HTU21D;62812;55.188;61.302;2024-03-02T03:35:40;-2.61;68.67
74376;HTU21D;62812;55.188;61.302;2024-03-02T03:38:07;-2.53;68.62
74376;HTU21D;62812;55.188;61.302;2024-03-02T03:40:33;-2.47;68.01
74376;HTU21D;62812;55.188;61.302;2024-03-02T03:42:59;-2.45;68.17
74376;HTU21D;62812;55.188;61.302;2024-03-02T03:45:27;-2.43;67.84
74376;HTU21D;62812;55.188;61.302;2024-03-02T03:47:55;-2.39;67.36
74376;HTU21D;62812;55.188;61.302;2024-03-02T03:50:22;-2.39;67.00
74376;HTU21D;62812;55.188;61.302;2024-03-02T03:52:48;-2.35;66.70
74376;HTU21D;62812;55.188;61.302;2024-03-02T03:55:15;-2.34;66.80
74376;HTU21D;62812;55.188;61.302;2024-03-02T03:57:41;-2.31;66.82
74376;HTU21D;62812;55.188;61.302;2024-03-02T04:00:08;-2.27;67.06
74376;HTU21D;62812;55.188;61.302;2024-03-02T04:02:36;-2.18;66.48
74376;HTU21D;62812;55.188;61.302;2024-03-02T04:05:04;-2.05;66.03
74376;HTU21D;62812;55.188;61.302;2024-03-02T04:07:35;-1.93;65.82
74376;HTU21D;62812;55.188;61.302;2024-03-02T04:10:07;-1.72;65.36
74376;HTU21D;62812;55.188;61.302;2024-03-02T04:12:35;-1.72;64.86
74376;HTU21D;62812;55.188;61.302;2024-03-02T04:15:04;-1.53;64.52
74376;HTU21D;62812;55.188;61.302;2024-03-02T04:17:33;-1.30;64.00
74376;HTU21D;62812;55.188;61.302;2024-03-02T04:20:00;-1.02;63.04
74376;HTU21D;62812;55.188;61.302;2024-03-02T04:22:28;-0.87;62.27
74376;HTU21D;62812;55.188;61.302;2024-03-02T04:24:57;-0.56;62.31
74376;HTU21D;62812;55.188;61.302;2024-03-02T04:27:23;-0.42;61.17
74376;HTU21D;62812;55.188;61.302;2024-03-02T04:29:50;-0.38;60.44
74376;HTU21D;62812;55.188;61.302;2024-03-02T04:32:18;-0.39;60.80
74376;HTU21D;62812;55.188;61.302;2024-03-02T04:34:46;-0.22;60.19
74376;HTU21D;62812;55.188;61.302;2024-03-02T04:37:12;-0.15;59.96
74376;HTU21D;62812;55.188;61.302;2024-03-02T04:39:40;-0.09;59.64
74376;HTU21D;62812;55.188;61.302;2024-03-02T04:42:06;-0.03;59.30
74376;HTU21D;62812;55.188;61.302;2024-03-02T04:44:33;-0.20;59.60
74376;HTU21D;62812;55.188;61.302;2024-03-02T04:46:59;-0.10;59.22
74376;HTU21D;62812;55.188;61.302;2024-03-02T04:49:26;-0.00;59.72
74376;HTU21D;62812;55.188;61.302;2024-03-02T04:51:52;0.04;59.45
74376;HTU21D;62812;55.188;61.302;2024-03-02T04:54:19;0.05;58.55
74376;HTU21D;62812;55.188;61.302;2024-03-02T04:56:47;-0.05;59.21
74376;HTU21D;62812;55.188;61.302;2024-03-02T04:59:17;-0.16;58.35
74376;HTU21D;62812;55.188;61.302;2024-03-02T05:01:49;-0.23;58.00
74376;HTU21D;62812;55.188;61.302;2024-03-02T05:04:15;-0.17;58.42
74376;HTU21D;62812;55.188;61.302;2024-03-02T05:06:44;-0.12;58.76
74376;HTU21D;62812;55.188;61.302;2024-03-02T05:09:17;-0.02;58.58
74376;HTU21D;62812;55.188;61.302;2024-03-02T05:11:43;0.04;59.16
74376;HTU21D;62812;55.188;61.302;2024-03-02T05:14:11;0.09;59.09
74376;HTU21D;62812;55.188;61.302;2024-03-02T05:16:38;0.24;58.55
74376;HTU21D;62812;55.188;61.302;2024-03-02T05:19:08;0.33;58.09
74376;HTU21D;62812;55.188;61.302;2024-03-02T05:21:34;0.31;57.22
74376;HTU21D;62812;55.188;61.302;2024-03-02T05:24:04;0.27;57.87
74376;HTU21D;62812;55.188;61.302;2024-03-02T05:26:30;0.30;57.22
74376;HTU21D;62812;55.188;61.302;2024-03-02T05:28:56;0.23;57.89
74376;HTU21D;62812;55.188;61.302;2024-03-02T05:31:24;0.30;57.97
74376;HTU21D;62812;55.188;61.302;2024-03-02T05:33:51;0.28;56.78
74376;HTU21D;62812;55.188;61.302;2024-03-02T05:36:34;0.16;57.16
74376;HTU21D;62812;55.188;61.302;2024-03-02T05:39:01;0.31;57.51
74376;HTU21D;62812;55.188;61.302;2024-03-02T05:41:28;0.28;56.31
74376;HTU21D;62812;55.188;61.302;2024-03-02T05:43:55;0.31;56.39
74376;HTU21D;62812;55.188;61.302;2024-03-02T05:46:23;0.39;56.68
74376;HTU21D;62812;55.188;61.302;2024-03-02T05:48:50;0.37;55.63
74376;HTU21D;62812;55.188;61.302;2024-03-02T05:51:16;0.34;55.95
74376;HTU21D;62812;55.188;61.302;2024-03-02T05:53:43;0.30;55.65
74376;HTU21D;62812;55.188;61.302;2024-03-02T05:56:12;0.18;55.89
74376;HTU21D;62812;55.188;61.302;2024-03-02T05:58:38;0.25;55.99
74376;HTU21D;62812;55.188;61.302;2024-03-02T06:01:25;0.28;56.59
74376;HTU21D;62812;55.188;61.302;2024-03-02T06:03:54;0.49;56.87
74376;HTU21D;62812;55.188;61.302;2024-03-02T06:06:21;0.64;56.66
74376;HTU21D;62812;55.188;61.302;2024-03-02T06:08:47;0.74;55.59
74376;HTU21D;62812;55.188;61.302;2024-03-02T06:11:14;0.92;56.19
74376;HTU21D;62812;55.188;61.302;2024-03-02T06:13:42;1.12;55.19
74376;HTU21D;62812;55.188;61.302;2024-03-02T06:16:08;1.06;53.68
74376;HTU21D;62812;55.188;61.302;2024-03-02T06:18:36;1.03;53.40
74376;HTU21D;62812;55.188;61.302;2024-03-02T06:21:03;1.02;53.91
74376;HTU21D;62812;55.188;61.302;2024-03-02T06:23:30;1.02;54.45
74376;HTU21D;62812;55.188;61.302;2024-03-02T06:25:56;1.10;54.67
74376;HTU21D;62812;55.188;61.302;2024-03-02T06:28:23;1.10;54.84
74376;HTU21D;62812;55.188;61.302;2024-03-02T06:30:49;1.07;53.46
74376;HTU21D;62812;55.188;61.302;2024-03-02T06:33:16;1.05;53.73
74376;HTU21D;62812;55.188;61.302;2024-03-02T06:35:46;1.16;55.29
74376;HTU21D;62812;55.188;61.302;2024-03-02T06:38:12;1.16;53.95
74376;HTU21D;62812;55.188;61.302;2024-03-02T06:40:41;1.26;53.50
74376;HTU21D;62812;55.188;61.302;2024-03-02T06:43:14;1.18;53.77
74376;HTU21D;62812;55.188;61.302;2024-03-02T06:45:40;1.14;54.02
74376;HTU21D;62812;55.188;61.302;2024-03-02T06:48:07;1.10;54.52
74376;HTU21D;62812;55.188;61.302;2024-03-02T06:50:36;1.07;55.06
74376;HTU21D;62812;55.188;61.302;2024-03-02T06:53:04;1.06;53.71
74376;HTU21D;62812;55.188;61.302;2024-03-02T06:55:32;1.26;54.78
74376;HTU21D;62812;55.188;61.302;2024-03-02T06:57:58;1.34;53.69
74376;HTU21D;62812;55.188;61.302;2024-03-02T07:00:25;1.31;53.45
74376;HTU21D;62812;55.188;61.302;2024-03-02T07:02:51;1.20;52.62
74376;HTU21D;62812;55.188;61.302;2024-03-02T07:05:18;1.18;53.62
74376;HTU21D;62812;55.188;61.302;2024-03-02T07:07:44;1.31;53.57
74376;HTU21D;62812;55.188;61.302;2024-03-02T07:10:12;1.22;54.58
74376;HTU21D;62812;55.188;61.302;2024-03-02T07:12:39;1.08;54.55
74376;HTU21D;62812;55.188;61.302;2024-03-02T07:15:06;1.09;54.20
74376;HTU21D;62812;55.188;61.302;2024-03-02T07:17:34;0.97;54.59
74376;HTU21D;62812;55.188;61.302;2024-03-02T07:20:00;0.99;54.68
74376;HTU21D;62812;55.188;61.302;2024-03-02T07:22:26;1.08;53.82
74376;HTU21D;62812;55.188;61.302;2024-03-02T07:24:53;0.97;54.45
74376;HTU21D;62812;55.188;61.302;2024-03-02T07:27:21;0.82;53.68
74376;HTU21D;62812;55.188;61.302;2024-03-02T07:29:48;0.80;53.57
74376;HTU21D;62812;55.188;61.302;2024-03-02T07:32:16;0.89;55.79
74376;HTU21D;62812;55.188;61.302;2024-03-02T07:34:42;0.92;54.55
74376;HTU21D;62812;55.188;61.302;2024-03-02T07:37:09;1.05;54.33
74376;HTU21D;62812;55.188;61.302;2024-03-02T07:39:36;1.31;54.75
74376;HTU21D;62812;55.188;61.302;2024-03-02T07:42:02;1.41;52.11
74376;HTU21D;62812;55.188;61.302;2024-03-02T07:44:30;1.36;54.10
74376;HTU21D;62812;55.188;61.302;2024-03-02T07:46:59;1.49;53.72
74376;HTU21D;62812;55.188;61.302;2024-03-02T07:49:31;1.72;52.58
74376;HTU21D;62812;55.188;61.302;2024-03-02T07:52:02;1.91;51.32
74376;HTU21D;62812;55.188;61.302;2024-03-02T07:54:57;2.11;49.85
74376;HTU21D;62812;55.188;61.302;2024-03-02T07:57:27;1.94;50.21
74376;HTU21D;62812;55.188;61.302;2024-03-02T07:59:55;1.68;50.34
74376;HTU21D;62812;55.188;61.302;2024-03-02T08:02:22;1.67;51.67
74376;HTU21D;62812;55.188;61.302;2024-03-02T08:04:48;1.71;52.25
74376;HTU21D;62812;55.188;61.302;2024-03-02T08:07:15;1.54;51.16
74376;HTU21D;62812;55.188;61.302;2024-03-02T08:09:42;1.75;51.76
74376;HTU21D;62812;55.188;61.302;2024-03-02T08:12:08;1.90;50.47
74376;HTU21D;62812;55.188;61.302;2024-03-02T08:14:35;1.88;51.21
74376;HTU21D;62812;55.188;61.302;2024-03-02T08:17:03;1.66;50.00
74376;HTU21D;62812;55.188;61.302;2024-03-02T08:19:36;1.47;50.51
74376;HTU21D;62812;55.188;61.302;2024-03-02T08:22:03;1.54;52.63
74376;HTU21D;62812;55.188;61.302;2024-03-02T08:24:30;1.71;51.33
74376;HTU21D;62812;55.188;61.302;2024-03-02T08:26:57;1.62;50.32
74376;HTU21D;62812;55.188;61.302;2024-03-02T08:29:24;1.27;52.21
74376;HTU21D;62812;55.188;61.302;2024-03-02T08:31:51;1.03;52.33
74376;HTU21D;62812;55.188;61.302;2024-03-02T08:34:19;0.84;52.20
74376;HTU21D;62812;55.188;61.302;2024-03-02T08:36:46;0.76;52.06
74376;HTU21D;62812;55.188;61.302;2024-03-02T08:39:15;0.72;53.52
74376;HTU21D;62812;55.188;61.302;2024-03-02T08:41:41;0.65;53.18
74376;HTU21D;62812;55.188;61.302;2024-03-02T08:44:14;0.58;53.36
74376;HTU21D;62812;55.188;61.302;2024-03-02T08:46:42;0.54;52.19
74376;HTU21D;62812;55.188;61.302;2024-03-02T08:49:09;0.46;53.45
74376;HTU21D;62812;55.188;61.302;2024-03-02T08:51:37;0.44;54.52
74376;HTU21D;62812;55.188;61.302;2024-03-02T08:54:04;0.42;53.45
74376;HTU21D;62812;55.188;61.302;2024-03-02T08:56:31;0.38;53.71
74376;HTU21D;62812;55.188;61.302;2024-03-02T08:58:58;0.44;53.88
74376;HTU21D;62812;55.188;61.302;2024-03-02T09:01:26;0.49;54.11
74376;HTU21D;62812;55.188;61.302;2024-03-02T09:04:17;0.59;53.97
74376;HTU21D;62812;55.188;61.302;2024-03-02T09:06:52;0.72;54.09
74376;HTU21D;62812;55.188;61.302;2024-03-02T09:09:22;0.77;54.07
74376;HTU21D;62812;55.188;61.302;2024-03-02T09:11:48;0.92;54.89
74376;HTU21D;62812;55.188;61.302;2024-03-02T09:14:15;1.06;52.98
74376;HTU21D;62812;55.188;61.302;2024-03-02T09:16:42;1.12;53.91
74376;HTU21D;62812;55.188;61.302;2024-03-02T09:19:09;1.25;53.03
74376;HTU21D;62812;55.188;61.302;2024-03-02T09:21:49;1.25;51.46
74376;HTU21D;62812;55.188;61.302;2024-03-02T09:24:18;1.18;52.57
74376;HTU21D;62812;55.188;61.302;2024-03-02T09:26:45;1.20;51.87
74376;HTU21D;62812;55.188;61.302;2024-03-02T09:29:11;1.24;53.05
74376;HTU21D;62812;55.188;61.302;2024-03-02T09:31:41;1.29;53.19
74376;HTU21D;62812;55.188;61.302;2024-03-02T09:34:08;1.37;53.13
74376;HTU21D;62812;55.188;61.302;2024-03-02T09:36:34;1.34;52.31
74376;HTU21D;62812;55.188;61.302;2024-03-02T09:39:09;1.19;53.82
74376;HTU21D;62812;55.188;61.302;2024-03-02T09:41:38;1.18;53.98
74376;HTU21D;62812;55.188;61.302;2024-03-02T09:44:05;1.17;53.35
74376;HTU21D;62812;55.188;61.302;2024-03-02T09:46:32;1.25;54.13
74376;HTU21D;62812;55.188;61.302;2024-03-02T09:48:59;1.17;54.09
74376;HTU21D;62812;55.188;61.302;2024-03-02T09:51:26;1.21;53.59
74376;HTU21D;62812;55.188;61.302;2024-03-02T09:53:54;1.37;53.20
74376;HTU21D;62812;55.188;61.302;2024-03-02T09:56:25;1.49;53.07
74376;HTU21D;62812;55.188;61.302;2024-03-02T09:58:57;1.50;53.59
74376;HTU21D;62812;55.188;61.302;2024-03-02T10:01:24;1.68;52.97
74376;HTU21D;62812;55.188;61.302;2024-03-02T10:03:51;1.94;52.49
74376;HTU21D;62812;55.188;61.302;2024-03-02T10:06:22;1.98;51.79
74376;HTU21D;62812;55.188;61.302;2024-03-02T10:08:49;1.73;52.11
74376;HTU21D;62812;55.188;61.302;2024-03-02T10:11:28;1.84;52.24
74376;HTU21D;62812;55.188;61.302;2024-03-02T10:14:06;1.66;52.44
74376;HTU21D;62812;55.188;61.302;2024-03-02T10:16:36;1.52;53.74
74376;HTU21D;62812;55.188;61.302;2024-03-02T10:19:18;1.52;54.31
74376;HTU21D;62812;55.188;61.302;2024-03-02T10:21:46;1.48;54.58
74376;HTU21D;62812;55.188;61.302;2024-03-02T10:24:15;1.52;54.21
74376;HTU21D;62812;55.188;61.302;2024-03-02T10:26:43;1.60;54.53
74376;HTU21D;62812;55.188;61.302;2024-03-02T10:29:10;1.50;54.42
74376;HTU21D;62812;55.188;61.302;2024-03-02T10:31:37;1.55;53.95
74376;HTU21D;62812;55.188;61.302;2024-03-02T10:34:05;1.73;53.62
74376;HTU21D;62812;55.188;61.302;2024-03-02T10:36:35;1.79;52.89
74376;HTU21D;62812;55.188;61.302;2024-03-02T10:39:03;1.68;53.02
74376;HTU21D;62812;55.188;61.302;2024-03-02T10:41:33;1.61;53.67
74376;HTU21D;62812;55.188;61.302;2024-03-02T10:44:04;1.63;54.00
74376;HTU21D;62812;55.188;61.302;2024-03-02T10:46:32;1.58;53.39
74376;HTU21D;62812;55.188;61.302;2024-03-02T10:49:00;1.56;53.78
74376;HTU21D;62812;55.188;61.302;2024-03-02T10:51:29;1.45;53.82
74376;HTU21D;62812;55.188;61.302;2024-03-02T10:54:00;1.36;53.87
74376;HTU21D;62812;55.188;61.302;2024-03-02T10:56:29;1.33;54.00
74376;HTU21D;62812;55.188;61.302;2024-03-02T10:59:05;1.31;54.26
74376;HTU21D;62812;55.188;61.302;2024-03-02T11:01:34;1.28;54.67
74376;HTU21D;62812;55.188;61.302;2024-03-02T11:04:04;1.28;54.22
74376;HTU21D;62812;55.188;61.302;2024-03-02T11:06:36;1.22;53.95
74376;HTU21D;62812;55.188;61.302;2024-03-02T11:09:07;1.36;54.32
74376;HTU21D;62812;55.188;61.302;2024-03-02T11:11:43;1.48;53.72
74376;HTU21D;62812;55.188;61.302;2024-03-02T11:14:14;1.42;54.62
74376;HTU21D;62812;55.188;61.302;2024-03-02T11:16:42;1.37;54.49
74376;HTU21D;62812;55.188;61.302;2024-03-02T11:19:15;1.27;54.81
74376;HTU21D;62812;55.188;61.302;2024-03-02T11:21:43;1.24;54.73
74376;HTU21D;62812;55.188;61.302;2024-03-02T11:24:34;1.28;55.23
74376;HTU21D;62812;55.188;61.302;2024-03-02T11:27:02;1.27;55.27
74376;HTU21D;62812;55.188;61.302;2024-03-02T11:29:46;1.37;54.70
74376;HTU21D;62812;55.188;61.302;2024-03-02T11:32:14;1.41;55.13
74376;HTU21D;62812;55.188;61.302;2024-03-02T11:34:42;1.48;54.65
74376;HTU21D;62812;55.188;61.302;2024-03-02T11:37:14;1.41;54.71
74376;HTU21D;62812;55.188;61.302;2024-03-02T11:39:42;1.37;54.43
74376;HTU21D;62812;55.188;61.302;2024-03-02T11:42:09;1.38;55.04
74376;HTU21D;62812;55.188;61.302;2024-03-02T11:44:43;1.36;55.16
74376;HTU21D;62812;55.188;61.302;2024-03-02T11:47:15;1.37;55.28
74376;HTU21D;62812;55.188;61.302;2024-03-02T11:49:43;1.41;55.07
74376;HTU21D;62812;55.188;61.302;2024-03-02T11:52:12;1.42;54.85
74376;HTU21D;62812;55.188;61.302;2024-03-02T11:54:42;1.47;55.17
74376;HTU21D;62812;55.188;61.302;2024-03-02T11:57:18;1.54;54.68
74376;HTU21D;62812;55.188;61.302;2024-03-02T11:59:45;1.42;55.20
74376;HTU21D;62812;55.188;61.302;2024-03-02T12:02:16;1.39;55.38
74376;HTU21D;62812;55.188;61.302;2024-03-02T12:04:44;1.31;55.06
74376;HTU21D;62812;55.188;61.302;2024-03-02T12:07:11;1.31;55.47
74376;HTU21D;62812;55.188;61.302;2024-03-02T12:09:38;1.29;56.10
74376;HTU21D;62812;55.188;61.302;2024-03-02T12:12:06;1.29;57.74
74376;HTU21D;62812;55.188;61.302;2024-03-02T12:14:35;1.18;56.42
74376;HTU21D;62812;55.188;61.302;2024-03-02T12:17:01;1.10;56.24
74376;HTU21D;62812;55.188;61.302;2024-03-02T12:19:33;1.08;55.97
74376;HTU21D;62812;55.188;61.302;2024-03-02T12:22:00;1.04;56.64
74376;HTU21D;62812;55.188;61.302;2024-03-02T12:24:30;1.04;56.32
74376;HTU21D;62812;55.188;61.302;2024-03-02T12:26:58;1.07;56.46
74376;HTU21D;62812;55.188;61.302;2024-03-02T12:29:26;1.04;56.61
74376;HTU21D;62812;55.188;61.302;2024-03-02T12:31:52;1.04;56.50
74376;HTU21D;62812;55.188;61.302;2024-03-02T12:34:19;0.98;56.77
74376;HTU21D;62812;55.188;61.302;2024-03-02T12:36:47;1.01;56.45
74376;HTU21D;62812;55.188;61.302;2024-03-02T12:39:16;1.04;56.16
74376;HTU21D;62812;55.188;61.302;2024-03-02T12:41:49;1.02;57.04
74376;HTU21D;62812;55.188;61.302;2024-03-02T12:44:17;0.94;56.74
74376;HTU21D;62812;55.188;61.302;2024-03-02T12:46:44;0.96;57.38
74376;HTU21D;62812;55.188;61.302;2024-03-02T12:49:15;0.95;56.73
74376;HTU21D;62812;55.188;61.302;2024-03-02T12:51:44;0.89;56.73
74376;HTU21D;62812;55.188;61.302;2024-03-02T12:54:14;0.82;57.25
74376;HTU21D;62812;55.188;61.302;2024-03-02T12:56:51;0.78;57.59
74376;HTU21D;62812;55.188;61.302;2024-03-02T12:59:23;0.73;57.10
74376;HTU21D;62812;55.188;61.302;2024-03-02T13:01:51;0.72;58.00
74376;HTU21D;62812;55.188;61.302;2024-03-02T13:04:22;0.66;57.43
74376;HTU21D;62812;55.188;61.302;2024-03-02T13:06:52;0.62;57.39
74376;HTU21D;62812;55.188;61.302;2024-03-02T13:09:21;0.54;57.74
74376;HTU21D;62812;55.188;61.302;2024-03-02T13:11:48;0.49;58.24
74376;HTU21D;62812;55.188;61.302;2024-03-02T13:14:14;0.45;58.47
74376;HTU21D;62812;55.188;61.302;2024-03-02T13:16:41;0.43;58.41
74376;HTU21D;62812;55.188;61.302;2024-03-02T13:19:08;0.37;58.62
74376;HTU21D;62812;55.188;61.302;2024-03-02T13:21:35;0.31;59.06
74376;HTU21D;62812;55.188;61.302;2024-03-02T13:24:01;0.24;59.13
74376;HTU21D;62812;55.188;61.302;2024-03-02T13:26:30;0.17;59.24
74376;HTU21D;62812;55.188;61.302;2024-03-02T13:28:58;0.17;58.79
74376;HTU21D;62812;55.188;61.302;2024-03-02T13:31:25;0.16;58.71
74376;HTU21D;62812;55.188;61.302;2024-03-02T13:33:51;0.18;58.53
74376;HTU21D;62812;55.188;61.302;2024-03-02T13:36:18;0.19;58.07
74376;HTU21D;62812;55.188;61.302;2024-03-02T13:38:48;0.17;58.84
74376;HTU21D;62812;55.188;61.302;2024-03-02T13:41:16;0.24;58.21
74376;HTU21D;62812;55.188;61.302;2024-03-02T13:43:47;0.20;58.53
74376;HTU21D;62812;55.188;61.302;2024-03-02T13:46:14;0.13;58.96
74376;HTU21D;62812;55.188;61.302;2024-03-02T13:48:41;0.03;59.12
74376;HTU21D;62812;55.188;61.302;2024-03-02T13:51:07;-0.02;59.06
74376;HTU21D;62812;55.188;61.302;2024-03-02T13:53:36;-0.06;59.27
74376;HTU21D;62812;55.188;61.302;2024-03-02T13:56:09;-0.12;59.71
74376;HTU21D;62812;55.188;61.302;2024-03-02T13:58:39;-0.19;59.83
74376;HTU21D;62812;55.188;61.302;2024-03-02T14:01:12;-0.19;59.95
74376;HTU21D;62812;55.188;61.302;2024-03-02T14:03:40;-0.22;59.50
74376;HTU21D;62812;55.188;61.302;2024-03-02T14:06:07;-0.24;59.69
74376;HTU21D;62812;55.188;61.302;2024-03-02T14:08:34;-0.16;59.96
74376;HTU21D;62812;55.188;61.302;2024-03-02T14:11:02;-0.14;59.38
74376;HTU21D;62812;55.188;61.302;2024-03-02T14:13:40;-0.15;61.25
74376;HTU21D;62812;55.188;61.302;2024-03-02T14:16:11;-0.10;63.11
74376;HTU21D;62812;55.188;61.302;2024-03-02T14:18:38;-0.09;60.85
74376;HTU21D;62812;55.188;61.302;2024-03-02T14:21:04;-0.14;59.78
74376;HTU21D;62812;55.188;61.302;2024-03-02T14:23:33;-0.21;59.64
74376;HTU21D;62812;55.188;61.302;2024-03-02T14:26:04;-0.19;59.10
74376;HTU21D;62812;55.188;61.302;2024-03-02T14:28:31;-0.27;59.71
74376;HTU21D;62812;55.188;61.302;2024-03-02T14:30:58;-0.37;59.69
74376;HTU21D;62812;55.188;61.302;2024-03-02T14:33:31;-0.31;59.15
74376;HTU21D;62812;55.188;61.302;2024-03-02T14:36:00;-0.34;59.70
74376;HTU21D;62812;55.188;61.302;2024-03-02T14:38:26;-0.42;59.79
74376;HTU21D;62812;55.188;61.302;2024-03-02T14:40:55;-0.51;60.06
74376;HTU21D;62812;55.188;61.302;2024-03-02T14:43:26;-0.60;60.35
74376;HTU21D;62812;55.188;61.302;2024-03-02T14:45:52;-0.65;60.26
74376;HTU21D;62812;55.188;61.302;2024-03-02T14:48:19;-0.70;60.49
74376;HTU21D;62812;55.188;61.302;2024-03-02T14:50:47;-0.80;67.08
74376;HTU21D;62812;55.188;61.302;2024-03-02T14:53:13;-0.84;61.07
74376;HTU21D;62812;55.188;61.302;2024-03-02T14:55:42;-0.82;60.99
74376;HTU21D;62812;55.188;61.302;2024-03-02T14:58:09;-1.00;61.47
74376;HTU21D;62812;55.188;61.302;2024-03-02T15:00:36;-1.17;61.77
74376;HTU21D;62812;55.188;61.302;2024-03-02T15:03:02;-1.30;62.28
74376;HTU21D;62812;55.188;61.302;2024-03-02T15:05:31;-1.43;62.44
74376;HTU21D;62812;55.188;61.302;2024-03-02T15:07:59;-1.49;62.78
74376;HTU21D;62812;55.188;61.302;2024-03-02T15:10:31;-1.59;63.16
74376;HTU21D;62812;55.188;61.302;2024-03-02T15:12:57;-1.24;81.22
74376;HTU21D;62812;55.188;61.302;2024-03-02T15:15:24;-0.68;81.89
74376;HTU21D;62812;55.188;61.302;2024-03-02T15:17:51;0.10;81.05